sensor_id;sensor_type;location;lat;lon;timestamp;pressure;altitude;pressure_sealevel;temperature;humidity
79544;BME280;68994;47.176;7.534;2023-06-26T00:02:12;96157.03;;;17.52;69.66
79544;BME280;68994;47.176;7.534;2023-06-26T00:04:39;96156.84;;;17.48;69.14
79544;BME280;68994;47.176;7.534;2023-06-26T00:07:05;96165.03;;;17.43;69.38
79544;BME280;68994;47.176;7.534;2023-06-26T00:09:32;96162.91;;;17.40;69.25
79544;BME280;68994;47.176;7.534;2023-06-26T00:12:01;96164.09;;;17.34;68.84
79544;BME280;68994;47.176;7.534;2023-06-26T00:14:27;96165.19;;;17.33;69.28
79544;BME280;68994;47.176;7.534;2023-06-26T00:16:54;96166.91;;;17.42;69.68
79544;BME280;68994;47.176;7.534;2023-06-26T00:19:21;96168.13;;;17.50;66.39
79544;BME280;68994;47.176;7.534;2023-06-26T00:21:47;96158.63;;;17.53;66.92
79544;BME280;68994;47.176;7.534;2023-06-26T00:24:14;96166.13;;;17.56;67.67
79544;BME280;68994;47.176;7.534;2023-06-26T00:26:41;96165.94;;;17.52;68.60
79544;BME280;68994;47.176;7.534;2023-06-26T00:29:09;96160.91;;;17.46;69.16
79544;BME280;68994;47.176;7.534;2023-06-26T00:31:36;96167.72;;;17.43;68.63
79544;BME280;68994;47.176;7.534;2023-06-26T00:34:03;96168.41;;;17.35;69.49
79544;BME280;68994;47.176;7.534;2023-06-26T00:36:30;96166.88;;;17.29;69.88
79544;BME280;68994;47.176;7.534;2023-06-26T00:38:56;96166.88;;;17.29;70.01
79544;BME280;68994;47.176;7.534;2023-06-26T00:41:23;96162.91;;;17.26;70.64
79544;BME280;68994;47.176;7.534;2023-06-26T00:43:49;96167.75;;;17.24;70.56
79544;BME280;68994;47.176;7.534;2023-06-26T00:46:17;96179.97;;;17.21;70.58
79544;BME280;68994;47.176;7.534;2023-06-26T00:48:46;96171.88;;;17.21;70.46
79544;BME280;68994;47.176;7.534;2023-06-26T00:51:13;96167.06;;;17.18;70.99
79544;BME280;68994;47.176;7.534;2023-06-26T00:53:40;96169.25;;;17.16;72.74
79544;BME280;68994;47.176;7.534;2023-06-26T00:56:06;96165.44;;;17.17;72.59
79544;BME280;68994;47.176;7.534;2023-06-26T00:58:34;96168.69;;;17.19;72.39
79544;BME280;68994;47.176;7.534;2023-06-26T01:01:00;96169.25;;;17.16;72.44
79544;BME280;68994;47.176;7.534;2023-06-26T01:03:29;96173.53;;;17.17;73.09
79544;BME280;68994;47.176;7.534;2023-06-26T01:05:58;96175.72;;;17.15;73.20
79544;BME280;68994;47.176;7.534;2023-06-26T01:08:26;96180.03;;;17.16;73.34
79544;BME280;68994;47.176;7.534;2023-06-26T01:10:53;96178.44;;;17.15;73.42
79544;BME280;68994;47.176;7.534;2023-06-26T01:13:20;96179.47;;;17.19;73.39
79544;BME280;68994;47.176;7.534;2023-06-26T01:15:48;96143.94;;;16.98;73.79
79544;BME280;68994;47.176;7.534;2023-06-26T01:18:14;96176.44;;;17.21;74.34
79544;BME280;68994;47.176;7.534;2023-06-26T01:20:43;96177.84;;;17.18;74.79
79544;BME280;68994;47.176;7.534;2023-06-26T01:23:15;96176.03;;;17.14;75.13
79544;BME280;68994;47.176;7.534;2023-06-26T01:28:28;96168.03;;;17.09;75.25
79544;BME280;68994;47.176;7.534;2023-06-26T01:30:56;96174.81;;;17.06;75.08
79544;BME280;68994;47.176;7.534;2023-06-26T01:33:23;96182.38;;;17.04;75.47
79544;BME280;68994;47.176;7.534;2023-06-26T01:35:50;96177.28;;;17.02;74.93
79544;BME280;68994;47.176;7.534;2023-06-26T01:38:18;96176.28;;;16.98;75.77
79544;BME280;68994;47.176;7.534;2023-06-26T01:40:45;96173.88;;;16.97;75.53
79544;BME280;68994;47.176;7.534;2023-06-26T01:43:18;96168.56;;;16.92;75.14
79544;BME280;68994;47.176;7.534;2023-06-26T01:45:49;96173.47;;;16.90;75.53
79544;BME280;68994;47.176;7.534;2023-06-26T01:48:22;96165.75;;;17.16;74.89
79544;BME280;68994;47.176;7.534;2023-06-26T01:50:51;96169.75;;;17.18;75.00
79544;BME280;68994;47.176;7.534;2023-06-26T01:53:21;96182.00;;;17.11;74.77
79544;BME280;68994;47.176;7.534;2023-06-26T01:55:51;96167.72;;;17.10;75.77
79544;BME280;68994;47.176;7.534;2023-06-26T01:58:20;96170.44;;;17.10;76.29
79544;BME280;68994;47.176;7.534;2023-06-26T02:00:50;96168.41;;;17.02;75.85
79544;BME280;68994;47.176;7.534;2023-06-26T02:03:17;96175.56;;;16.93;76.20
79544;BME280;68994;47.176;7.534;2023-06-26T02:05:43;96171.91;;;16.83;76.84
79544;BME280;68994;47.176;7.534;2023-06-26T02:08:14;96181.44;;;16.76;76.44
79544;BME280;68994;47.176;7.534;2023-06-26T02:10:41;96183.63;;;16.74;76.95
79544;BME280;68994;47.176;7.534;2023-06-26T02:13:08;96181.81;;;16.69;76.95
79544;BME280;68994;47.176;7.534;2023-06-26T02:15:35;96183.50;;;16.65;76.81
79544;BME280;68994;47.176;7.534;2023-06-26T02:18:02;96179.25;;;16.59;76.42
79544;BME280;68994;47.176;7.534;2023-06-26T02:20:29;96185.84;;;16.53;76.70
79544;BME280;68994;47.176;7.534;2023-06-26T02:22:56;96183.22;;;16.47;77.24
79544;BME280;68994;47.176;7.534;2023-06-26T02:25:22;96189.69;;;16.46;77.21
79544;BME280;68994;47.176;7.534;2023-06-26T02:27:49;96190.81;;;16.40;76.50
79544;BME280;68994;47.176;7.534;2023-06-26T02:30:15;96182.31;;;16.33;76.90
79544;BME280;68994;47.176;7.534;2023-06-26T02:32:42;96187.19;;;16.31;76.81
79544;BME280;68994;47.176;7.534;2023-06-26T02:35:10;96186.69;;;16.29;76.74
79544;BME280;68994;47.176;7.534;2023-06-26T02:37:37;96188.84;;;16.27;76.76
79544;BME280;68994;47.176;7.534;2023-06-26T02:40:04;96187.25;;;16.26;76.73
79544;BME280;68994;47.176;7.534;2023-06-26T02:42:31;96194.28;;;16.22;76.43
79544;BME280;68994;47.176;7.534;2023-06-26T02:44:57;96194.38;;;16.17;76.39
79544;BME280;68994;47.176;7.534;2023-06-26T02:47:24;96189.25;;;16.15;76.58
79544;BME280;68994;47.176;7.534;2023-06-26T02:49:51;96189.25;;;16.15;76.47
79544;BME280;68994;47.176;7.534;2023-06-26T02:52:18;96188.69;;;16.18;76.95
79544;BME280;68994;47.176;7.534;2023-06-26T02:54:45;96192.47;;;16.17;76.58
79544;BME280;68994;47.176;7.534;2023-06-26T02:57:12;96184.91;;;16.19;76.70
79544;BME280;68994;47.176;7.534;2023-06-26T02:59:39;96188.91;;;16.22;75.83
79544;BME280;68994;47.176;7.534;2023-06-26T03:02:06;96195.41;;;16.21;75.56
79544;BME280;68994;47.176;7.534;2023-06-26T03:04:33;96194.28;;;16.22;75.57
79544;BME280;68994;47.176;7.534;2023-06-26T03:07:01;96190.97;;;16.30;74.57
79544;BME280;68994;47.176;7.534;2023-06-26T03:09:29;96195.91;;;16.23;75.75
79544;BME280;68994;47.176;7.534;2023-06-26T03:11:56;96195.53;;;16.10;75.74
79544;BME280;68994;47.176;7.534;2023-06-26T03:14:22;96195.88;;;16.04;76.38
79544;BME280;68994;47.176;7.534;2023-06-26T03:16:49;96209.69;;;15.97;76.57
79544;BME280;68994;47.176;7.534;2023-06-26T03:19:18;96194.91;;;15.94;76.80
79544;BME280;68994;47.176;7.534;2023-06-26T03:21:44;96198.44;;;15.90;76.59
79544;BME280;68994;47.176;7.534;2023-06-26T03:24:11;96201.19;;;15.85;77.02
79544;BME280;68994;47.176;7.534;2023-06-26T03:26:39;96199.94;;;15.77;76.92
79544;BME280;68994;47.176;7.534;2023-06-26T03:29:05;96197.47;;;15.81;76.80
79544;BME280;68994;47.176;7.534;2023-06-26T03:31:32;96209.56;;;15.83;76.42
79544;BME280;68994;47.176;7.534;2023-06-26T03:33:58;96204.72;;;15.80;76.42
79544;BME280;68994;47.176;7.534;2023-06-26T03:36:25;96201.19;;;15.85;76.00
79544;BME280;68994;47.176;7.534;2023-06-26T03:38:52;96202.25;;;15.89;75.49
79544;BME280;68994;47.176;7.534;2023-06-26T03:41:22;96203.38;;;15.83;75.91
79544;BME280;68994;47.176;7.534;2023-06-26T03:43:50;96202.34;;;15.79;77.24
79544;BME280;68994;47.176;7.534;2023-06-26T03:46:16;96213.69;;;15.75;76.94
79544;BME280;68994;47.176;7.534;2023-06-26T03:48:43;96209.13;;;15.71;77.38
79544;BME280;68994;47.176;7.534;2023-06-26T03:51:10;96208.38;;;15.65;76.93
79544;BME280;68994;47.176;7.534;2023-06-26T03:53:36;96210.53;;;15.63;77.37
79544;BME280;68994;47.176;7.534;2023-06-26T03:56:03;96223.47;;;15.61;77.09
79544;BME280;68994;47.176;7.534;2023-06-26T03:58:30;96216.47;;;15.60;76.98
79544;BME280;68994;47.176;7.534;2023-06-26T04:00:58;96220.50;;;15.63;77.28
79544;BME280;68994;47.176;7.534;2023-06-26T04:03:24;96217.53;;;15.64;77.40
79544;BME280;68994;47.176;7.534;2023-06-26T04:05:51;96227.72;;;15.67;77.34
79544;BME280;68994;47.176;7.534;2023-06-26T04:08:18;96230.94;;;15.69;76.79
79544;BME280;68994;47.176;7.534;2023-06-26T04:10:45;96235.22;;;15.75;77.12
79544;BME280;68994;47.176;7.534;2023-06-26T04:13:13;96232.22;;;15.77;76.48
79544;BME280;68994;47.176;7.534;2023-06-26T04:15:40;96233.75;;;15.83;75.93
79544;BME280;68994;47.176;7.534;2023-06-26T04:18:08;96234.25;;;15.90;76.33
79544;BME280;68994;47.176;7.534;2023-06-26T04:20:38;96234.75;;;15.92;76.52
79544;BME280;68994;47.176;7.534;2023-06-26T04:23:05;96232.56;;;15.94;77.13
79544;BME280;68994;47.176;7.534;2023-06-26T04:25:32;96231.25;;;15.92;77.30
79544;BME280;68994;47.176;7.534;2023-06-26T04:27:58;96241.44;;;15.95;77.51
79544;BME280;68994;47.176;7.534;2023-06-26T04:30:25;96235.78;;;15.97;76.79
79544;BME280;68994;47.176;7.534;2023-06-26T04:32:51;96240.13;;;16.17;74.08
79544;BME280;68994;47.176;7.534;2023-06-26T04:35:19;96235.38;;;16.32;75.35
79544;BME280;68994;47.176;7.534;2023-06-26T04:37:46;96244.69;;;16.40;74.48
79544;BME280;68994;47.176;7.534;2023-06-26T04:40:13;96240.56;;;16.48;73.60
79544;BME280;68994;47.176;7.534;2023-06-26T04:42:39;96250.47;;;16.53;73.78
79544;BME280;68994;47.176;7.534;2023-06-26T04:45:07;96246.69;;;16.54;73.64
79544;BME280;68994;47.176;7.534;2023-06-26T04:47:33;96242.84;;;16.60;73.33
79544;BME280;68994;47.176;7.534;2023-06-26T04:50:00;96250.56;;;16.66;74.10
79544;BME280;68994;47.176;7.534;2023-06-26T04:52:28;96231.84;;;16.56;74.04
79544;BME280;68994;47.176;7.534;2023-06-26T04:54:54;96247.28;;;16.69;73.72
79544;BME280;68994;47.176;7.534;2023-06-26T04:57:21;96248.59;;;16.72;74.66
79544;BME280;68994;47.176;7.534;2023-06-26T04:59:48;96254.44;;;16.79;73.83
79544;BME280;68994;47.176;7.534;2023-06-26T05:02:14;96247.31;;;16.88;73.08
79544;BME280;68994;47.176;7.534;2023-06-26T05:04:41;96251.56;;;16.95;73.31
79544;BME280;68994;47.176;7.534;2023-06-26T05:07:08;96249.84;;;16.99;72.94
79544;BME280;68994;47.176;7.534;2023-06-26T05:09:36;96244.69;;;17.02;72.52
79544;BME280;68994;47.176;7.534;2023-06-26T05:12:03;96247.09;;;17.04;73.38
79544;BME280;68994;47.176;7.534;2023-06-26T05:14:30;96247.38;;;17.02;73.56
79544;BME280;68994;47.176;7.534;2023-06-26T05:16:56;96248.69;;;17.05;72.99
79544;BME280;68994;47.176;7.534;2023-06-26T05:19:23;96243.53;;;17.09;72.80
79544;BME280;68994;47.176;7.534;2023-06-26T05:21:50;96239.94;;;17.13;73.52
79544;BME280;68994;47.176;7.534;2023-06-26T05:24:19;96240.66;;;17.19;73.75
79544;BME280;68994;47.176;7.534;2023-06-26T05:26:48;96239.50;;;17.25;73.21
79544;BME280;68994;47.176;7.534;2023-06-26T05:29:15;96241.03;;;17.31;73.09
79544;BME280;68994;47.176;7.534;2023-06-26T05:31:42;96242.31;;;17.34;73.48
79544;BME280;68994;47.176;7.534;2023-06-26T05:34:11;96251.25;;;17.48;74.03
79544;BME280;68994;47.176;7.534;2023-06-26T05:36:41;96246.78;;;17.57;73.06
79544;BME280;68994;47.176;7.534;2023-06-26T05:39:08;96246.31;;;17.69;71.68
79544;BME280;68994;47.176;7.534;2023-06-26T05:41:35;96242.13;;;17.77;70.59
79544;BME280;68994;47.176;7.534;2023-06-26T05:44:03;96254.44;;;17.83;70.98
79544;BME280;68994;47.176;7.534;2023-06-26T05:46:30;96247.78;;;17.94;70.02
79544;BME280;68994;47.176;7.534;2023-06-26T05:48:57;96243.97;;;17.95;70.50
79544;BME280;68994;47.176;7.534;2023-06-26T05:51:24;96251.38;;;18.04;70.56
79544;BME280;68994;47.176;7.534;2023-06-26T05:53:51;96255.06;;;18.08;70.12
79544;BME280;68994;47.176;7.534;2023-06-26T05:56:18;96248.50;;;18.14;70.55
79544;BME280;68994;47.176;7.534;2023-06-26T05:58:46;96252.19;;;18.18;70.24
79544;BME280;68994;47.176;7.534;2023-06-26T06:01:14;96252.59;;;18.25;69.58
79544;BME280;68994;47.176;7.534;2023-06-26T06:03:40;96242.19;;;18.32;69.52
79544;BME280;68994;47.176;7.534;2023-06-26T06:06:07;96246.41;;;18.39;69.45
79544;BME280;68994;47.176;7.534;2023-06-26T06:08:33;96241.97;;;18.43;69.31
79544;BME280;68994;47.176;7.534;2023-06-26T06:11:00;96243.97;;;18.51;69.53
79544;BME280;68994;47.176;7.534;2023-06-26T06:13:27;96246.25;;;18.58;69.69
79544;BME280;68994;47.176;7.534;2023-06-26T06:15:54;96236.94;;;18.64;68.73
79544;BME280;68994;47.176;7.534;2023-06-26T06:18:23;96230.00;;;18.71;68.11
79544;BME280;68994;47.176;7.534;2023-06-26T06:20:49;96245.50;;;18.80;69.16
79544;BME280;68994;47.176;7.534;2023-06-26T06:23:16;96244.34;;;18.86;69.39
79544;BME280;68994;47.176;7.534;2023-06-26T06:25:42;96247.41;;;18.93;69.83
79544;BME280;68994;47.176;7.534;2023-06-26T06:28:09;96250.19;;;19.02;69.57
79544;BME280;68994;47.176;7.534;2023-06-26T06:30:35;96247.44;;;19.16;67.23
79544;BME280;68994;47.176;7.534;2023-06-26T06:33:02;96238.06;;;19.36;66.90
79544;BME280;68994;47.176;7.534;2023-06-26T06:35:30;96232.16;;;19.65;64.75
79544;BME280;68994;47.176;7.534;2023-06-26T06:37:57;96237.44;;;19.70;64.86
79544;BME280;68994;47.176;7.534;2023-06-26T06:40:23;96241.34;;;19.78;65.39
79544;BME280;68994;47.176;7.534;2023-06-26T06:42:51;96239.97;;;19.89;63.90
79544;BME280;68994;47.176;7.534;2023-06-26T06:45:17;96236.03;;;20.04;65.58
79544;BME280;68994;47.176;7.534;2023-06-26T06:47:44;96232.25;;;20.14;62.05
79544;BME280;68994;47.176;7.534;2023-06-26T06:50:10;96242.19;;;20.27;61.88
79544;BME280;68994;47.176;7.534;2023-06-26T06:52:39;96229.78;;;20.35;62.89
79544;BME280;68994;47.176;7.534;2023-06-26T06:55:07;96234.59;;;20.38;63.45
79544;BME280;68994;47.176;7.534;2023-06-26T06:57:35;96235.09;;;20.57;59.79
79544;BME280;68994;47.176;7.534;2023-06-26T07:00:04;96228.59;;;20.76;60.17
79544;BME280;68994;47.176;7.534;2023-06-26T07:02:33;96236.13;;;21.14;56.80
79544;BME280;68994;47.176;7.534;2023-06-26T07:05:00;96235.31;;;21.40;55.41
79544;BME280;68994;47.176;7.534;2023-06-26T07:07:28;96236.75;;;21.37;56.40
79544;BME280;68994;47.176;7.534;2023-06-26T07:09:57;96232.47;;;21.54;54.96
79544;BME280;68994;47.176;7.534;2023-06-26T07:12:24;96241.16;;;21.77;53.26
79544;BME280;68994;47.176;7.534;2023-06-26T07:14:51;96233.81;;;21.86;53.74
79544;BME280;68994;47.176;7.534;2023-06-26T07:17:19;96232.84;;;21.82;53.93
79544;BME280;68994;47.176;7.534;2023-06-26T07:19:46;96239.25;;;21.86;54.31
79544;BME280;68994;47.176;7.534;2023-06-26T07:22:12;96228.00;;;21.96;54.37
79544;BME280;68994;47.176;7.534;2023-06-26T07:24:39;96235.34;;;22.04;52.91
79544;BME280;68994;47.176;7.534;2023-06-26T07:27:07;96232.44;;;22.10;51.73
79544;BME280;68994;47.176;7.534;2023-06-26T07:29:34;96237.50;;;22.20;52.71
79544;BME280;68994;47.176;7.534;2023-06-26T07:32:00;96227.25;;;22.34;49.78
79544;BME280;68994;47.176;7.534;2023-06-26T07:34:27;96240.31;;;22.41;50.66
79544;BME280;68994;47.176;7.534;2023-06-26T07:36:53;96233.53;;;22.56;50.08
79544;BME280;68994;47.176;7.534;2023-06-26T07:39:20;96231.53;;;22.65;49.94
79544;BME280;68994;47.176;7.534;2023-06-26T07:41:46;96234.44;;;22.60;51.29
79544;BME280;68994;47.176;7.534;2023-06-26T07:44:14;96230.88;;;22.68;50.18
79544;BME280;68994;47.176;7.534;2023-06-26T07:46:41;96228.91;;;22.77;49.64
79544;BME280;68994;47.176;7.534;2023-06-26T07:49:07;96226.13;;;22.86;49.48
79544;BME280;68994;47.176;7.534;2023-06-26T07:51:34;96232.91;;;23.01;49.18
79544;BME280;68994;47.176;7.534;2023-06-26T07:54:01;96229.03;;;23.02;49.37
79544;BME280;68994;47.176;7.534;2023-06-26T07:56:27;96230.47;;;23.08;49.09
79544;BME280;68994;47.176;7.534;2023-06-26T07:58:54;96229.50;;;23.04;48.65
79544;BME280;68994;47.176;7.534;2023-06-26T08:01:24;96228.81;;;23.16;49.06
79544;BME280;68994;47.176;7.534;2023-06-26T08:03:50;96225.72;;;23.18;49.02
79544;BME280;68994;47.176;7.534;2023-06-26T08:06:17;96222.00;;;23.22;49.08
79544;BME280;68994;47.176;7.534;2023-06-26T08:08:44;96222.13;;;23.26;49.34
79544;BME280;68994;47.176;7.534;2023-06-26T08:11:10;96221.44;;;23.50;48.54
79544;BME280;68994;47.176;7.534;2023-06-26T08:13:37;96221.81;;;23.61;48.65
79544;BME280;68994;47.176;7.534;2023-06-26T08:16:04;96215.94;;;23.71;47.74
79544;BME280;68994;47.176;7.534;2023-06-26T08:18:32;96225.59;;;23.81;48.30
79544;BME280;68994;47.176;7.534;2023-06-26T08:20:59;96216.91;;;23.87;48.48
79544;BME280;68994;47.176;7.534;2023-06-26T08:23:25;96216.91;;;23.87;48.32
79544;BME280;68994;47.176;7.534;2023-06-26T08:25:52;96214.06;;;23.84;47.01
79544;BME280;68994;47.176;7.534;2023-06-26T08:28:18;96227.69;;;23.84;47.40
79544;BME280;68994;47.176;7.534;2023-06-26T08:30:45;96221.13;;;23.85;48.59
79544;BME280;68994;47.176;7.534;2023-06-26T08:33:12;96209.41;;;23.84;48.44
79544;BME280;68994;47.176;7.534;2023-06-26T08:35:40;96213.84;;;24.01;48.78
79544;BME280;68994;47.176;7.534;2023-06-26T08:38:06;96215.44;;;24.02;48.43
79544;BME280;68994;47.176;7.534;2023-06-26T08:40:34;96211.25;;;24.05;48.64
79544;BME280;68994;47.176;7.534;2023-06-26T08:43:01;96212.88;;;24.18;47.21
79544;BME280;68994;47.176;7.534;2023-06-26T08:45:28;96207.84;;;24.20;47.43
79544;BME280;68994;47.176;7.534;2023-06-26T08:47:59;96207.50;;;24.22;46.86
79544;BME280;68994;47.176;7.534;2023-06-26T08:50:30;96209.44;;;24.34;47.09
79544;BME280;68994;47.176;7.534;2023-06-26T08:53:04;96204.53;;;24.39;46.38
79544;BME280;68994;47.176;7.534;2023-06-26T08:55:33;96201.81;;;24.64;45.74
79544;BME280;68994;47.176;7.534;2023-06-26T08:58:01;96202.63;;;24.52;46.90
79544;BME280;68994;47.176;7.534;2023-06-26T09:00:28;96214.44;;;24.69;46.60
79544;BME280;68994;47.176;7.534;2023-06-26T09:02:55;96206.72;;;24.71;47.25
79544;BME280;68994;47.176;7.534;2023-06-26T09:05:22;96201.78;;;24.76;46.58
79544;BME280;68994;47.176;7.534;2023-06-26T09:07:49;96204.84;;;24.87;45.09
79544;BME280;68994;47.176;7.534;2023-06-26T09:10:18;96203.34;;;25.02;45.23
79544;BME280;68994;47.176;7.534;2023-06-26T09:12:46;96197.50;;;25.04;45.98
79544;BME280;68994;47.176;7.534;2023-06-26T09:15:14;96209.19;;;25.16;46.09
79544;BME280;68994;47.176;7.534;2023-06-26T09:17:42;96192.66;;;25.25;43.89
79544;BME280;68994;47.176;7.534;2023-06-26T09:20:09;96181.19;;;25.19;43.76
79544;BME280;68994;47.176;7.534;2023-06-26T09:22:38;96194.56;;;25.37;44.08
79544;BME280;68994;47.176;7.534;2023-06-26T09:25:05;96194.88;;;25.48;43.82
79544;BME280;68994;47.176;7.534;2023-06-26T09:27:34;96191.88;;;25.53;43.59
79544;BME280;68994;47.176;7.534;2023-06-26T09:30:01;96194.75;;;25.72;43.08
79544;BME280;68994;47.176;7.534;2023-06-26T09:32:28;96192.47;;;26.06;43.26
79544;BME280;68994;47.176;7.534;2023-06-26T09:34:55;96189.88;;;26.45;42.89
79544;BME280;68994;47.176;7.534;2023-06-26T09:37:22;96179.44;;;27.06;42.16
79544;BME280;68994;47.176;7.534;2023-06-26T09:39:50;96180.03;;;28.24;38.59
79544;BME280;68994;47.176;7.534;2023-06-26T09:42:17;96171.59;;;29.57;36.00
79544;BME280;68994;47.176;7.534;2023-06-26T09:44:45;96171.56;;;31.06;32.84
79544;BME280;68994;47.176;7.534;2023-06-26T09:47:12;96179.72;;;32.15;30.21
79544;BME280;68994;47.176;7.534;2023-06-26T09:49:42;96175.69;;;32.78;28.79
79544;BME280;68994;47.176;7.534;2023-06-26T09:52:10;96165.09;;;33.61;27.59
79544;BME280;68994;47.176;7.534;2023-06-26T09:54:40;96169.53;;;34.11;26.75
79544;BME280;68994;47.176;7.534;2023-06-26T09:57:07;96165.13;;;34.59;26.49
79544;BME280;68994;47.176;7.534;2023-06-26T09:59:34;96162.44;;;34.93;25.97
79544;BME280;68994;47.176;7.534;2023-06-26T10:02:03;96168.91;;;35.48;25.25
79544;BME280;68994;47.176;7.534;2023-06-26T10:04:29;96166.03;;;35.82;24.99
79544;BME280;68994;47.176;7.534;2023-06-26T10:06:58;96160.22;;;36.48;25.74
79544;BME280;68994;47.176;7.534;2023-06-26T10:09:25;96157.72;;;36.53;24.22
79544;BME280;68994;47.176;7.534;2023-06-26T10:11:56;96168.50;;;37.15;22.59
79544;BME280;68994;47.176;7.534;2023-06-26T10:14:26;96166.94;;;37.14;24.47
79544;BME280;68994;47.176;7.534;2023-06-26T10:16:57;96166.94;;;37.14;22.93
79544;BME280;68994;47.176;7.534;2023-06-26T10:19:26;96170.94;;;36.93;23.58
79544;BME280;68994;47.176;7.534;2023-06-26T10:21:54;96168.38;;;36.35;24.91
79544;BME280;68994;47.176;7.534;2023-06-26T10:24:22;96166.22;;;36.22;24.24
79544;BME280;68994;47.176;7.534;2023-06-26T10:26:50;96169.84;;;35.92;27.01
79544;BME280;68994;47.176;7.534;2023-06-26T10:29:20;96167.19;;;35.85;26.80
79544;BME280;68994;47.176;7.534;2023-06-26T10:31:50;96162.16;;;36.74;25.48
79544;BME280;68994;47.176;7.534;2023-06-26T10:34:18;96159.53;;;37.27;25.32
79544;BME280;68994;47.176;7.534;2023-06-26T10:36:46;96156.72;;;38.00;23.67
79544;BME280;68994;47.176;7.534;2023-06-26T10:39:17;96161.19;;;37.61;25.86
79544;BME280;68994;47.176;7.534;2023-06-26T10:41:43;96157.16;;;35.64;24.98
79544;BME280;68994;47.176;7.534;2023-06-26T10:44:11;96157.47;;;33.83;28.63
79544;BME280;68994;47.176;7.534;2023-06-26T10:46:48;96167.47;;;32.24;30.39
79544;BME280;68994;47.176;7.534;2023-06-26T10:49:15;96163.16;;;32.12;32.00
79544;BME280;68994;47.176;7.534;2023-06-26T10:51:47;96161.06;;;31.48;33.13
79544;BME280;68994;47.176;7.534;2023-06-26T10:54:15;96165.88;;;31.83;34.00
79544;BME280;68994;47.176;7.534;2023-06-26T10:56:43;96168.53;;;31.43;34.82
79544;BME280;68994;47.176;7.534;2023-06-26T10:59:15;96171.44;;;30.84;34.73
79544;BME280;68994;47.176;7.534;2023-06-26T11:01:42;96175.78;;;30.30;35.90
79544;BME280;68994;47.176;7.534;2023-06-26T11:04:10;96172.78;;;29.97;37.95
79544;BME280;68994;47.176;7.534;2023-06-26T11:06:38;96172.91;;;29.71;37.31
79544;BME280;68994;47.176;7.534;2023-06-26T11:09:10;96180.63;;;30.40;37.30
79544;BME280;68994;47.176;7.534;2023-06-26T11:11:59;96180.19;;;30.97;35.95
79544;BME280;68994;47.176;7.534;2023-06-26T11:14:31;96178.72;;;33.23;34.53
79544;BME280;68994;47.176;7.534;2023-06-26T11:16:59;96176.66;;;34.08;33.39
79544;BME280;68994;47.176;7.534;2023-06-26T11:19:28;96175.94;;;35.53;31.25
79544;BME280;68994;47.176;7.534;2023-06-26T11:21:59;96175.00;;;35.94;30.84
79544;BME280;68994;47.176;7.534;2023-06-26T11:24:28;96173.06;;;36.14;28.02
79544;BME280;68994;47.176;7.534;2023-06-26T11:27:00;96185.06;;;35.84;27.55
79544;BME280;68994;47.176;7.534;2023-06-26T11:29:27;96177.03;;;36.40;28.26
79544;BME280;68994;47.176;7.534;2023-06-26T11:31:59;96184.69;;;35.51;28.09
79544;BME280;68994;47.176;7.534;2023-06-26T11:34:29;96182.38;;;34.39;29.15
79544;BME280;68994;47.176;7.534;2023-06-26T11:36:57;96185.75;;;33.38;30.02
79544;BME280;68994;47.176;7.534;2023-06-26T11:39:27;96182.41;;;33.79;29.66
79544;BME280;68994;47.176;7.534;2023-06-26T11:41:54;96190.88;;;34.14;28.12
79544;BME280;68994;47.176;7.534;2023-06-26T11:44:21;96179.06;;;34.93;29.90
79544;BME280;68994;47.176;7.534;2023-06-26T11:46:48;96175.63;;;35.78;28.71
79544;BME280;68994;47.176;7.534;2023-06-26T11:49:17;96181.63;;;36.51;28.10
79544;BME280;68994;47.176;7.534;2023-06-26T11:51:46;96168.91;;;36.93;25.35
79544;BME280;68994;47.176;7.534;2023-06-26T11:54:13;96182.34;;;37.19;25.24
79544;BME280;68994;47.176;7.534;2023-06-26T11:56:41;96176.41;;;36.97;25.68
79544;BME280;68994;47.176;7.534;2023-06-26T11:59:12;96160.56;;;36.73;25.54
79544;BME280;68994;47.176;7.534;2023-06-26T12:01:40;96180.78;;;36.54;24.88
79544;BME280;68994;47.176;7.534;2023-06-26T12:04:08;96170.09;;;36.01;25.40
79544;BME280;68994;47.176;7.534;2023-06-26T12:06:36;96183.06;;;35.84;25.21
79544;BME280;68994;47.176;7.534;2023-06-26T12:09:06;96170.00;;;36.09;27.40
79544;BME280;68994;47.176;7.534;2023-06-26T12:11:35;96170.56;;;36.47;25.74
79544;BME280;68994;47.176;7.534;2023-06-26T12:14:05;96179.06;;;36.60;26.71
79544;BME280;68994;47.176;7.534;2023-06-26T12:16:33;96172.56;;;36.70;24.17
79544;BME280;68994;47.176;7.534;2023-06-26T12:19:00;96168.91;;;36.93;25.06
79544;BME280;68994;47.176;7.534;2023-06-26T12:21:28;96168.28;;;37.06;24.17
79544;BME280;68994;47.176;7.534;2023-06-26T12:23:58;96159.28;;;36.78;23.74
79544;BME280;68994;47.176;7.534;2023-06-26T12:26:26;96164.88;;;36.98;25.16
79544;BME280;68994;47.176;7.534;2023-06-26T12:28:53;96171.03;;;36.66;24.48
79544;BME280;68994;47.176;7.534;2023-06-26T12:31:21;96169.19;;;36.35;23.62
79544;BME280;68994;47.176;7.534;2023-06-26T12:33:48;96170.50;;;35.45;23.74
79544;BME280;68994;47.176;7.534;2023-06-26T12:36:17;96162.69;;;35.02;27.18
79544;BME280;68994;47.176;7.534;2023-06-26T12:38:45;96158.34;;;35.66;26.39
79544;BME280;68994;47.176;7.534;2023-06-26T12:41:12;96147.66;;;35.92;24.54
79544;BME280;68994;47.176;7.534;2023-06-26T12:43:40;96146.19;;;35.84;24.17
79544;BME280;68994;47.176;7.534;2023-06-26T12:46:06;96153.41;;;35.78;25.04
79544;BME280;68994;47.176;7.534;2023-06-26T12:48:38;96140.66;;;36.08;24.77
79544;BME280;68994;47.176;7.534;2023-06-26T12:51:09;96151.25;;;36.60;25.75
79544;BME280;68994;47.176;7.534;2023-06-26T12:53:36;96130.50;;;35.97;24.51
79544;BME280;68994;47.176;7.534;2023-06-26T12:56:05;96147.44;;;36.07;25.10
79544;BME280;68994;47.176;7.534;2023-06-26T12:58:32;96141.69;;;35.66;24.00
79544;BME280;68994;47.176;7.534;2023-06-26T13:00:58;96135.25;;;35.70;24.19
79544;BME280;68994;47.176;7.534;2023-06-26T13:03:25;96127.72;;;35.43;24.52
79544;BME280;68994;47.176;7.534;2023-06-26T13:05:53;96138.69;;;35.81;26.15